sensor_id;sensor_type;location;lat;lon;timestamp;pressure;altitude;pressure_sealevel;temperature;humidity
49979;BME280;35869;50.990;6.962;2022-12-10T00:03:10;100508.94;;;0.15;100.00
49979;BME280;35869;50.990;6.962;2022-12-10T00:08:10;100506.41;;;0.10;100.00
49979;BME280;35869;50.990;6.962;2022-12-10T00:13:10;100508.94;;;0.12;100.00
49979;BME280;35869;50.990;6.962;2022-12-10T00:18:11;100511.56;;;0.04;100.00
49979;BME280;35869;50.990;6.962;2022-12-10T00:23:12;100509.03;;;-0.07;100.00
49979;BME280;35869;50.990;6.962;2022-12-10T00:28:12;100515.00;;;-0.05;100.00
49979;BME280;35869;50.990;6.962;2022-12-10T00:33:12;100517.56;;;-0.08;100.00
49979;BME280;35869;50.990;6.962;2022-12-10T00:38:12;100518.44;;;-0.10;100.00
49979;BME280;35869;50.990;6.962;2022-12-10T00:43:13;100511.63;;;-0.14;100.00
49979;BME280;35869;50.990;6.962;2022-12-10T00:48:13;100516.78;;;-0.22;100.00
49979;BME280;35869;50.990;6.962;2022-12-10T00:53:13;100515.09;;;-0.23;100.00
49979;BME280;35869;50.990;6.962;2022-12-10T00:58:13;100511.66;;;-0.25;100.00
49979;BME280;35869;50.990;6.962;2022-12-10T01:03:14;100518.50;;;-0.30;100.00
49979;BME280;35869;50.990;6.962;2022-12-10T01:08:14;100521.09;;;-0.42;100.00
49979;BME280;35869;50.990;6.962;2022-12-10T01:13:14;100524.50;;;-0.40;100.00
49979;BME280;35869;50.990;6.962;2022-12-10T01:18:15;100531.28;;;-0.42;100.00
49979;BME280;35869;50.990;6.962;2022-12-10T01:23:15;100541.53;;;-0.48;100.00
49979;BME280;35869;50.990;6.962;2022-12-10T01:28:15;100536.44;;;-0.61;100.00
49979;BME280;35869;50.990;6.962;2022-12-10T01:33:15;100539.84;;;-0.52;100.00
49979;BME280;35869;50.990;6.962;2022-12-10T01:38:15;100545.81;;;-0.57;100.00
49979;BME280;35869;50.990;6.962;2022-12-10T01:43:16;100552.59;;;-0.65;100.00
49979;BME280;35869;50.990;6.962;2022-12-10T01:48:16;100558.56;;;-0.66;100.00
49979;BME280;35869;50.990;6.962;2022-12-10T01:53:16;100559.41;;;-0.67;100.00
49979;BME280;35869;50.990;6.962;2022-12-10T01:58:18;100556.03;;;-0.63;100.00
49979;BME280;35869;50.990;6.962;2022-12-10T02:03:29;100560.28;;;-0.68;100.00
49979;BME280;35869;50.990;6.962;2022-12-10T02:08:41;100562.00;;;-0.70;100.00
49979;BME280;35869;50.990;6.962;2022-12-10T02:14:52;100568.81;;;-0.81;100.00
49979;BME280;35869;50.990;6.962;2022-12-10T02:24:34;100573.88;;;-0.84;100.00
49979;BME280;35869;50.990;6.962;2022-12-10T02:29:36;100569.63;;;-0.90;100.00
49979;BME280;35869;50.990;6.962;2022-12-10T02:34:42;100567.09;;;-0.91;100.00
49979;BME280;35869;50.990;6.962;2022-12-10T02:39:47;100569.63;;;-1.07;100.00
49979;BME280;35869;50.990;6.962;2022-12-10T02:44:49;100570.50;;;-0.92;100.00
49979;BME280;35869;50.990;6.962;2022-12-10T02:49:51;100564.53;;;-1.08;100.00
49979;BME280;35869;50.990;6.962;2022-12-10T02:54:53;100569.66;;;-1.10;100.00
49979;BME280;35869;50.990;6.962;2022-12-10T03:00:12;100583.16;;;-1.41;100.00
49979;BME280;35869;50.990;6.962;2022-12-10T03:05:25;100582.28;;;-1.54;100.00
49979;BME280;35869;50.990;6.962;2022-12-10T03:10:33;100587.47;;;-1.32;100.00
49979;BME280;35869;50.990;6.962;2022-12-10T03:15:37;100587.44;;;-1.40;100.00
49979;BME280;35869;50.990;6.962;2022-12-10T03:20:42;100589.19;;;-1.21;100.00
49979;BME280;35869;50.990;6.962;2022-12-10T03:25:46;100594.28;;;-1.15;100.00
49979;BME280;35869;50.990;6.962;2022-12-10T03:30:48;100596.84;;;-1.22;100.00
49979;BME280;35869;50.990;6.962;2022-12-10T03:35:50;100579.84;;;-1.10;100.00
49979;BME280;35869;50.990;6.962;2022-12-10T03:40:50;100594.28;;;-1.16;100.00
49979;BME280;35869;50.990;6.962;2022-12-10T03:45:51;100595.97;;;-1.20;100.00
49979;BME280;35869;50.990;6.962;2022-12-10T03:50:52;100597.69;;;-1.16;100.00
49979;BME280;35869;50.990;6.962;2022-12-10T03:55:52;100600.25;;;-1.11;100.00
49979;BME280;35869;50.990;6.962;2022-12-10T04:00:54;100597.69;;;-1.14;100.00
49979;BME280;35869;50.990;6.962;2022-12-10T04:06:01;100607.06;;;-1.05;100.00
49979;BME280;35869;50.990;6.962;2022-12-10T04:11:05;100612.97;;;-1.13;100.00
49979;BME280;35869;50.990;6.962;2022-12-10T04:16:07;100614.69;;;-1.02;100.00
49979;BME280;35869;50.990;6.962;2022-12-10T04:21:08;100619.81;;;-0.92;100.00
49979;BME280;35869;50.990;6.962;2022-12-10T04:26:08;100619.81;;;-0.96;100.00
49979;BME280;35869;50.990;6.962;2022-12-10T04:31:09;100625.75;;;-0.94;100.00
49979;BME280;35869;50.990;6.962;2022-12-10T04:36:09;100621.47;;;-1.21;100.00
49979;BME280;35869;50.990;6.962;2022-12-10T04:41:09;100617.22;;;-1.22;100.00
49979;BME280;35869;50.990;6.962;2022-12-10T04:46:11;100616.38;;;-1.18;100.00
49979;BME280;35869;50.990;6.962;2022-12-10T04:51:11;100616.38;;;-1.14;100.00
49979;BME280;35869;50.990;6.962;2022-12-10T04:56:11;100612.16;;;-0.93;100.00
49979;BME280;35869;50.990;6.962;2022-12-10T05:01:12;100612.13;;;-1.12;100.00
49979;BME280;35869;50.990;6.962;2022-12-10T05:06:14;100607.91;;;-1.05;100.00
49979;BME280;35869;50.990;6.962;2022-12-10T05:11:17;100611.28;;;-1.08;100.00
49979;BME280;35869;50.990;6.962;2022-12-10T05:16:22;100608.75;;;-1.00;100.00
49979;BME280;35869;50.990;6.962;2022-12-10T05:21:24;100607.88;;;-1.00;100.00
49979;BME280;35869;50.990;6.962;2022-12-10T05:26:25;100607.91;;;-0.99;100.00
49979;BME280;35869;50.990;6.962;2022-12-10T05:31:27;100601.94;;;-1.02;100.00
49979;BME280;35869;50.990;6.962;2022-12-10T05:36:30;100613.88;;;-0.94;100.00
49979;BME280;35869;50.990;6.962;2022-12-10T05:41:35;100605.34;;;-0.84;100.00
49979;BME280;35869;50.990;6.962;2022-12-10T05:46:36;100608.78;;;-0.80;100.00
49979;BME280;35869;50.990;6.962;2022-12-10T05:51:38;100618.97;;;-0.85;100.00
49979;BME280;35869;50.990;6.962;2022-12-10T05:56:38;100626.63;;;-0.65;100.00
49979;BME280;35869;50.990;6.962;2022-12-10T06:01:38;100627.47;;;-0.72;100.00
49979;BME280;35869;50.990;6.962;2022-12-10T06:06:40;100632.56;;;-0.72;100.00
49979;BME280;35869;50.990;6.962;2022-12-10T06:11:45;100633.41;;;-0.71;100.00
49979;BME280;35869;50.990;6.962;2022-12-10T06:16:48;100631.72;;;-0.83;100.00
49979;BME280;35869;50.990;6.962;2022-12-10T06:21:48;100633.44;;;-0.61;100.00
49979;BME280;35869;50.990;6.962;2022-12-10T06:26:49;100630.88;;;-0.58;100.00
49979;BME280;35869;50.990;6.962;2022-12-10T06:31:52;100630.03;;;-0.52;100.00
49979;BME280;35869;50.990;6.962;2022-12-10T06:36:52;100635.97;;;-0.61;100.00
49979;BME280;35869;50.990;6.962;2022-12-10T06:41:53;100637.69;;;-0.54;100.00
49979;BME280;35869;50.990;6.962;2022-12-10T06:46:53;100642.78;;;-0.47;100.00
49979;BME280;35869;50.990;6.962;2022-12-10T06:51:53;100648.75;;;-0.55;100.00
49979;BME280;35869;50.990;6.962;2022-12-10T06:56:53;100654.72;;;-0.57;100.00
49979;BME280;35869;50.990;6.962;2022-12-10T07:01:54;100658.97;;;-0.58;100.00
49979;BME280;35869;50.990;6.962;2022-12-10T07:07:19;100664.91;;;-0.63;100.00
49979;BME280;35869;50.990;6.962;2022-12-10T07:23:34;100681.94;;;-0.35;100.00
49979;BME280;35869;50.990;6.962;2022-12-10T07:34:13;100687.88;;;-0.30;100.00
49979;BME280;35869;50.990;6.962;2022-12-10T07:50:46;100705.78;;;-0.40;100.00
49979;BME280;35869;50.990;6.962;2022-12-10T07:55:50;100702.34;;;-0.44;100.00
49979;BME280;35869;50.990;6.962;2022-12-10T08:01:17;100717.69;;;-0.27;100.00
49979;BME280;35869;50.990;6.962;2022-12-10T08:06:38;100716.84;;;-0.23;100.00
49979;BME280;35869;50.990;6.962;2022-12-10T08:11:41;100718.53;;;-0.31;100.00
49979;BME280;35869;50.990;6.962;2022-12-10T08:16:45;100723.63;;;-0.37;100.00
49979;BME280;35869;50.990;6.962;2022-12-10T08:21:45;100730.47;;;-0.35;100.00
49979;BME280;35869;50.990;6.962;2022-12-10T08:26:56;100742.38;;;-0.23;100.00
49979;BME280;35869;50.990;6.962;2022-12-10T08:37:19;100739.81;;;-0.15;100.00
49979;BME280;35869;50.990;6.962;2022-12-10T08:42:19;100735.56;;;-0.09;100.00
49979;BME280;35869;50.990;6.962;2022-12-10T08:47:30;100747.47;;;-0.08;100.00
49979;BME280;35869;50.990;6.962;2022-12-10T08:52:30;100761.09;;;-0.01;100.00
49979;BME280;35869;50.990;6.962;2022-12-10T08:57:33;100766.22;;;-0.06;100.00
49979;BME280;35869;50.990;6.962;2022-12-10T09:02:51;100767.06;;;-0.04;100.00
49979;BME280;35869;50.990;6.962;2022-12-10T09:07:55;100767.03;;;-0.01;100.00
49979;BME280;35869;50.990;6.962;2022-12-10T09:13:15;100771.31;;;-0.04;100.00
49979;BME280;35869;50.990;6.962;2022-12-10T09:18:18;100769.59;;;0.04;100.00
49979;BME280;35869;50.990;6.962;2022-12-10T09:23:18;100776.44;;;-0.06;100.00
49979;BME280;35869;50.990;6.962;2022-12-10T09:28:22;100769.63;;;0.09;100.00
49979;BME280;35869;50.990;6.962;2022-12-10T09:33:22;100768.75;;;0.05;100.00
49979;BME280;35869;50.990;6.962;2022-12-10T09:38:22;100778.13;;;0.14;100.00
49979;BME280;35869;50.990;6.962;2022-12-10T09:49:10;100773.88;;;0.10;100.00
49979;BME280;35869;50.990;6.962;2022-12-10T09:54:25;100775.56;;;0.20;100.00
49979;BME280;35869;50.990;6.962;2022-12-10T09:59:31;100778.97;;;0.17;100.00
49979;BME280;35869;50.990;6.962;2022-12-10T10:04:34;100779.81;;;0.16;100.00
49979;BME280;35869;50.990;6.962;2022-12-10T10:09:38;100777.25;;;0.06;100.00
49979;BME280;35869;50.990;6.962;2022-12-10T10:14:40;100790.91;;;0.15;100.00
49979;BME280;35869;50.990;6.962;2022-12-10T10:19:42;100787.47;;;0.22;100.00
49979;BME280;35869;50.990;6.962;2022-12-10T10:24:49;100790.03;;;0.22;100.00
49979;BME280;35869;50.990;6.962;2022-12-10T10:29:51;100791.75;;;0.25;100.00
49979;BME280;35869;50.990;6.962;2022-12-10T10:34:57;100789.19;;;0.23;100.00
49979;BME280;35869;50.990;6.962;2022-12-10T10:39:58;100786.66;;;0.30;100.00
49979;BME280;35869;50.990;6.962;2022-12-10T10:44:59;100784.94;;;0.36;100.00
49979;BME280;35869;50.990;6.962;2022-12-10T10:50:00;100777.25;;;0.38;100.00
49979;BME280;35869;50.990;6.962;2022-12-10T10:55:00;100776.41;;;0.30;100.00
49979;BME280;35869;50.990;6.962;2022-12-10T11:00:05;100784.06;;;0.43;100.00
49979;BME280;35869;50.990;6.962;2022-12-10T11:05:35;100778.09;;;0.34;100.00
49979;BME280;35869;50.990;6.962;2022-12-10T11:10:35;100780.66;;;0.47;100.00
49979;BME280;35869;50.990;6.962;2022-12-10T11:15:39;100778.94;;;0.54;100.00
49979;BME280;35869;50.990;6.962;2022-12-10T11:20:39;100776.34;;;0.57;100.00
49979;BME280;35869;50.990;6.962;2022-12-10T11:31:23;100778.88;;;0.66;100.00
49979;BME280;35869;50.990;6.962;2022-12-10T11:36:33;100778.00;;;0.75;100.00
49979;BME280;35869;50.990;6.962;2022-12-10T11:46:56;100788.22;;;0.75;100.00
49979;BME280;35869;50.990;6.962;2022-12-10T11:52:12;100782.22;;;0.87;100.00
49979;BME280;35869;50.990;6.962;2022-12-10T12:13:13;100793.31;;;0.89;100.00
49979;BME280;35869;50.990;6.962;2022-12-10T12:18:25;100791.56;;;0.94;100.00
49979;BME280;35869;50.990;6.962;2022-12-10T12:23:31;100800.09;;;0.97;100.00
49979;BME280;35869;50.990;6.962;2022-12-10T12:28:42;100797.53;;;0.93;100.00
49979;BME280;35869;50.990;6.962;2022-12-10T12:33:47;100795.00;;;0.93;100.00
49979;BME280;35869;50.990;6.962;2022-12-10T12:38:59;100796.72;;;0.89;100.00
49979;BME280;35869;50.990;6.962;2022-12-10T12:44:13;100800.13;;;0.91;100.00
49979;BME280;35869;50.990;6.962;2022-12-10T12:49:26;100801.84;;;0.89;100.00
49979;BME280;35869;50.990;6.962;2022-12-10T12:54:32;100795.81;;;1.01;100.00
49979;BME280;35869;50.990;6.962;2022-12-10T13:04:51;100787.28;;;1.03;100.00
49979;BME280;35869;50.990;6.962;2022-12-10T13:15:21;100788.94;;;1.14;100.00
49979;BME280;35869;50.990;6.962;2022-12-10T13:20:52;100779.56;;;1.11;100.00
49979;BME280;35869;50.990;6.962;2022-12-10T13:26:24;100779.53;;;1.20;100.00
49979;BME280;35869;50.990;6.962;2022-12-10T13:36:35;100794.88;;;1.25;100.00
49979;BME280;35869;50.990;6.962;2022-12-10T13:47:21;100789.72;;;1.28;100.00
49979;BME280;35869;50.990;6.962;2022-12-10T13:52:45;100788.00;;;1.31;100.00
49979;BME280;35869;50.990;6.962;2022-12-10T14:03:47;100801.66;;;1.35;100.00
49979;BME280;35869;50.990;6.962;2022-12-10T14:09:27;100805.88;;;1.34;100.00
49979;BME280;35869;50.990;6.962;2022-12-10T14:14:40;100809.34;;;1.30;100.00
49979;BME280;35869;50.990;6.962;2022-12-10T14:19:45;100819.56;;;1.37;100.00
49979;BME280;35869;50.990;6.962;2022-12-10T14:24:47;100822.97;;;1.34;100.00
49979;BME280;35869;50.990;6.962;2022-12-10T14:29:51;100821.28;;;1.33;100.00
49979;BME280;35869;50.990;6.962;2022-12-10T14:34:55;100825.53;;;1.34;100.00
49979;BME280;35869;50.990;6.962;2022-12-10T14:39:56;100831.50;;;1.38;100.00
49979;BME280;35869;50.990;6.962;2022-12-10T14:44:59;100840.06;;;1.32;100.00
49979;BME280;35869;50.990;6.962;2022-12-10T14:50:00;100828.97;;;1.30;100.00
49979;BME280;35869;50.990;6.962;2022-12-10T14:55:01;100839.22;;;1.31;100.00
49979;BME280;35869;50.990;6.962;2022-12-10T15:00:06;100834.13;;;1.25;100.00
49979;BME280;35869;50.990;6.962;2022-12-10T15:05:18;100834.09;;;1.31;100.00
49979;BME280;35869;50.990;6.962;2022-12-10T15:10:20;100835.84;;;1.25;100.00
49979;BME280;35869;50.990;6.962;2022-12-10T15:15:31;100837.53;;;1.23;100.00
49979;BME280;35869;50.990;6.962;2022-12-10T15:20:45;100840.09;;;1.21;100.00
49979;BME280;35869;50.990;6.962;2022-12-10T15:31:11;100850.34;;;1.21;100.00
49979;BME280;35869;50.990;6.962;2022-12-10T15:36:48;100852.03;;;1.22;100.00
49979;BME280;35869;50.990;6.962;2022-12-10T15:42:00;100856.31;;;1.23;100.00
49979;BME280;35869;50.990;6.962;2022-12-10T15:47:20;100850.38;;;1.14;100.00
49979;BME280;35869;50.990;6.962;2022-12-10T15:52:25;100844.41;;;1.18;100.00
49979;BME280;35869;50.990;6.962;2022-12-10T16:02:59;100843.53;;;1.16;100.00
49979;BME280;35869;50.990;6.962;2022-12-10T16:08:27;100853.78;;;1.16;100.00
49979;BME280;35869;50.990;6.962;2022-12-10T16:13:30;100857.22;;;1.12;100.00
49979;BME280;35869;50.990;6.962;2022-12-10T16:18:32;100856.34;;;1.16;100.00
49979;BME280;35869;50.990;6.962;2022-12-10T16:23:32;100855.50;;;1.14;100.00
49979;BME280;35869;50.990;6.962;2022-12-10T16:28:33;100854.63;;;1.24;100.00
49979;BME280;35869;50.990;6.962;2022-12-10T16:33:33;100867.41;;;1.22;100.00
49979;BME280;35869;50.990;6.962;2022-12-10T16:38:33;100864.88;;;1.18;100.00
49979;BME280;35869;50.990;6.962;2022-12-10T16:43:33;100852.06;;;1.16;100.00
49979;BME280;35869;50.990;6.962;2022-12-10T16:48:34;100870.88;;;1.12;100.00
49979;BME280;35869;50.990;6.962;2022-12-10T16:53:34;100867.44;;;1.15;100.00
49979;BME280;35869;50.990;6.962;2022-12-10T16:58:34;100864.03;;;1.11;100.00
49979;BME280;35869;50.990;6.962;2022-12-10T17:03:34;100867.44;;;1.18;100.00
49979;BME280;35869;50.990;6.962;2022-12-10T17:08:35;100875.97;;;1.15;100.00
49979;BME280;35869;50.990;6.962;2022-12-10T17:13:35;100887.03;;;1.23;100.00
49979;BME280;35869;50.990;6.962;2022-12-10T17:18:36;100877.63;;;1.22;100.00
49979;BME280;35869;50.990;6.962;2022-12-10T17:23:36;100888.75;;;1.20;100.00
49979;BME280;35869;50.990;6.962;2022-12-10T17:28:36;100888.78;;;1.14;100.00
49979;BME280;35869;50.990;6.962;2022-12-10T17:33:36;100882.78;;;1.15;100.00
49979;BME280;35869;50.990;6.962;2022-12-10T17:38:37;100881.03;;;1.23;100.00
49979;BME280;35869;50.990;6.962;2022-12-10T17:43:37;100887.06;;;1.19;100.00
49979;BME280;35869;50.990;6.962;2022-12-10T17:48:38;100891.31;;;1.17;100.00
49979;BME280;35869;50.990;6.962;2022-12-10T17:53:38;100893.03;;;1.10;100.00
49979;BME280;35869;50.990;6.962;2022-12-10T17:58:39;100892.16;;;1.16;100.00
49979;BME280;35869;50.990;6.962;2022-12-10T18:03:39;100893.88;;;1.17;100.00
49979;BME280;35869;50.990;6.962;2022-12-10T18:08:40;100891.34;;;1.12;100.00
49979;BME280;35869;50.990;6.962;2022-12-10T18:13:41;100897.31;;;1.03;100.00
49979;BME280;35869;50.990;6.962;2022-12-10T18:18:41;100895.59;;;1.09;100.00
49979;BME280;35869;50.990;6.962;2022-12-10T18:23:41;100897.34;;;1.00;100.00
49979;BME280;35869;50.990;6.962;2022-12-10T18:28:44;100897.31;;;1.03;100.00
49979;BME280;35869;50.990;6.962;2022-12-10T18:33:48;100894.75;;;1.05;100.00
49979;BME280;35869;50.990;6.962;2022-12-10T18:38:50;100903.31;;;0.98;100.00
49979;BME280;35869;50.990;6.962;2022-12-10T18:43:51;100902.47;;;0.96;100.00
49979;BME280;35869;50.990;6.962;2022-12-10T18:48:52;100911.84;;;0.92;100.00
49979;BME280;35869;50.990;6.962;2022-12-10T18:53:53;100917.84;;;0.94;100.00
49979;BME280;35869;50.990;6.962;2022-12-10T18:58:53;100925.50;;;0.91;100.00
49979;BME280;35869;50.990;6.962;2022-12-10T19:03:54;100922.94;;;0.91;100.00
49979;BME280;35869;50.990;6.962;2022-12-10T19:08:56;100926.34;;;0.93;100.00
49979;BME280;35869;50.990;6.962;2022-12-10T19:13:57;100925.50;;;0.97;100.00
49979;BME280;35869;50.990;6.962;2022-12-10T19:18:57;100925.50;;;0.94;100.00
49979;BME280;35869;50.990;6.962;2022-12-10T19:23:58;100920.38;;;0.97;100.00
49979;BME280;35869;50.990;6.962;2022-12-10T19:28:59;100928.91;;;0.93;100.00
49979;BME280;35869;50.990;6.962;2022-12-10T19:34:00;100921.22;;;0.93;100.00
49979;BME280;35869;50.990;6.962;2022-12-10T19:39:00;100926.38;;;0.90;100.00
49979;BME280;35869;50.990;6.962;2022-12-10T19:44:01;100928.06;;;0.91;100.00
49979;BME280;35869;50.990;6.962;2022-12-10T19:49:01;100925.50;;;0.93;100.00
49979;BME280;35869;50.990;6.962;2022-12-10T19:54:01;100925.50;;;0.97;100.00
49979;BME280;35869;50.990;6.962;2022-12-10T19:59:10;100916.13;;;0.92;100.00
49979;BME280;35869;50.990;6.962;2022-12-10T20:04:13;100915.28;;;0.84;100.00
49979;BME280;35869;50.990;6.962;2022-12-10T20:09:19;100914.41;;;0.86;100.00
49979;BME280;35869;50.990;6.962;2022-12-10T20:14:20;100912.72;;;0.82;100.00
49979;BME280;35869;50.990;6.962;2022-12-10T20:19:22;100912.72;;;0.82;100.00
49979;BME280;35869;50.990;6.962;2022-12-10T20:24:23;100915.28;;;0.84;100.00
49979;BME280;35869;50.990;6.962;2022-12-10T20:29:24;100910.16;;;0.85;100.00
49979;BME280;35869;50.990;6.962;2022-12-10T20:34:24;100916.97;;;0.82;100.00
49979;BME280;35869;50.990;6.962;2022-12-10T20:39:27;100915.28;;;0.80;100.00
49979;BME280;35869;50.990;6.962;2022-12-10T20:44:28;100914.44;;;0.75;100.00
49979;BME280;35869;50.990;6.962;2022-12-10T20:49:29;100906.78;;;0.72;100.00
49979;BME280;35869;50.990;6.962;2022-12-10T20:54:29;100909.31;;;0.80;100.00
49979;BME280;35869;50.990;6.962;2022-12-10T20:59:29;100902.50;;;0.79;100.00
49979;BME280;35869;50.990;6.962;2022-12-10T21:04:30;100906.78;;;0.72;100.00
49979;BME280;35869;50.990;6.962;2022-12-10T21:09:30;100915.28;;;0.77;100.00
49979;BME280;35869;50.990;6.962;2022-12-10T21:14:30;100906.78;;;0.72;100.00
49979;BME280;35869;50.990;6.962;2022-12-10T21:19:30;100909.34;;;0.71;100.00
49979;BME280;35869;50.990;6.962;2022-12-10T21:24:30;100912.75;;;0.77;100.00
49979;BME280;35869;50.990;6.962;2022-12-10T21:29:31;100910.16;;;0.85;100.00
49979;BME280;35869;50.990;6.962;2022-12-10T21:34:31;100910.16;;;0.82;100.00
49979;BME280;35869;50.990;6.962;2022-12-10T21:39:31;100910.16;;;0.79;100.00
49979;BME280;35869;50.990;6.962;2022-12-10T21:44:31;100909.31;;;0.74;100.00
49979;BME280;35869;50.990;6.962;2022-12-10T21:49:31;100907.59;;;0.76;100.00
49979;BME280;35869;50.990;6.962;2022-12-10T21:54:33;100907.63;;;0.59;100.00
49979;BME280;35869;50.990;6.962;2022-12-10T21:59:33;100907.63;;;0.73;100.00
49979;BME280;35869;50.990;6.962;2022-12-10T22:04:35;100899.06;;;0.75;100.00
49979;BME280;35869;50.990;6.962;2022-12-10T22:09:35;100910.16;;;0.84;100.00
49979;BME280;35869;50.990;6.962;2022-12-10T22:14:35;100917.84;;;0.77;100.00
49979;BME280;35869;50.990;6.962;2022-12-10T22:19:35;100911.03;;;0.84;100.00
49979;BME280;35869;50.990;6.962;2022-12-10T22:24:36;100911.88;;;0.74;100.00
49979;BME280;35869;50.990;6.962;2022-12-10T22:29:36;100916.13;;;0.73;100.00
49979;BME280;35869;50.990;6.962;2022-12-10T22:34:36;100920.38;;;0.76;100.00
49979;BME280;35869;50.990;6.962;2022-12-10T22:39:36;100917.00;;;0.74;100.00
49979;BME280;35869;50.990;6.962;2022-12-10T22:44:37;100922.94;;;0.80;100.00
49979;BME280;35869;50.990;6.962;2022-12-10T22:49:37;100919.56;;;0.77;100.00
49979;BME280;35869;50.990;6.962;2022-12-10T22:54:37;100926.38;;;0.78;100.00
49979;BME280;35869;50.990;6.962;2022-12-10T22:59:38;100925.50;;;0.74;100.00
49979;BME280;35869;50.990;6.962;2022-12-10T23:04:38;100925.53;;;0.73;100.00
49979;BME280;35869;50.990;6.962;2022-12-10T23:09:38;100922.09;;;0.74;100.00
49979;BME280;35869;50.990;6.962;2022-12-10T23:14:38;100913.56;;;0.79;100.00
49979;BME280;35869;50.990;6.962;2022-12-10T23:19:39;100917.81;;;0.82;100.00
49979;BME280;35869;50.990;6.962;2022-12-10T23:24:39;100902.47;;;0.76;100.00
49979;BME280;35869;50.990;6.962;2022-12-10T23:29:39;100900.81;;;0.66;100.00
49979;BME280;35869;50.990;6.962;2022-12-10T23:34:39;100907.63;;;0.73;100.00
49979;BME280;35869;50.990;6.962;2022-12-10T23:39:39;100899.94;;;0.73;100.00
49979;BME280;35869;50.990;6.962;2022-12-10T23:44:40;100905.06;;;0.67;100.00
49979;BME280;35869;50.990;6.962;2022-12-10T23:49:40;100905.91;;;0.69;100.00
49979;BME280;35869;50.990;6.962;2022-12-10T23:54:40;100906.78;;;0.65;100.00
49979;BME280;35869;50.990;6.962;2022-12-10T23:59:41;100911.03;;;0.69;100.00
